createdAt,value
2023-06-18T00:00:46.876Z,11.70
2023-06-18T00:01:48.742Z,12.07
2023-06-18T00:02:50.585Z,12.13
2023-06-18T00:03:52.877Z,12.60
2023-06-18T00:04:55.092Z,12.18
2023-06-18T00:05:57.001Z,13.18
2023-06-18T00:06:58.898Z,13.05
2023-06-18T00:08:00.758Z,13.90
2023-06-18T00:09:02.620Z,12.25
2023-06-18T00:10:04.709Z,12.38
2023-06-18T00:11:06.776Z,12.88
2023-06-18T00:12:09.228Z,12.95
2023-06-18T00:13:11.020Z,12.95
2023-06-18T00:14:12.987Z,12.60
2023-06-18T00:15:15.083Z,11.88
2023-06-18T00:16:16.963Z,12.90
2023-06-18T00:17:18.935Z,12.90
2023-06-18T00:18:20.794Z,12.73
2023-06-18T00:19:22.728Z,12.48
2023-06-18T00:20:24.594Z,12.40
2023-06-18T00:21:26.471Z,12.38
2023-06-18T00:22:28.352Z,13.38
2023-06-18T00:23:30.124Z,12.25
2023-06-18T00:24:32.138Z,12.40
2023-06-18T00:25:34.326Z,12.18
2023-06-18T00:26:36.378Z,12.07
2023-06-18T00:27:38.217Z,13.00
2023-06-18T00:28:40.134Z,13.45
2023-06-18T00:29:42.217Z,12.77
2023-06-18T00:30:44.029Z,14.30
2023-06-18T00:31:45.960Z,12.68
2023-06-18T00:32:47.976Z,13.60
2023-06-18T00:33:49.851Z,12.05
2023-06-18T00:34:51.690Z,13.13
2023-06-18T00:35:54.177Z,12.50
2023-06-18T00:36:55.966Z,13.65
2023-06-18T00:37:57.813Z,13.15
2023-06-18T00:38:59.672Z,13.15
2023-06-18T00:40:01.654Z,13.38
2023-06-18T00:41:03.996Z,13.02
2023-06-18T00:42:06.678Z,12.65
2023-06-18T00:43:08.487Z,12.60
2023-06-18T00:44:10.294Z,12.05
2023-06-18T00:45:12.097Z,12.43
2023-06-18T00:46:14.066Z,13.18
2023-06-18T00:47:18.478Z,13.40
2023-06-18T00:48:20.824Z,12.27
2023-06-18T00:49:22.730Z,12.55
2023-06-18T00:50:25.245Z,13.45
2023-06-18T00:51:27.984Z,13.07
2023-06-18T00:52:29.789Z,11.85
2023-06-18T00:53:33.165Z,11.93
2023-06-18T00:54:36.976Z,11.70
2023-06-18T00:55:40.012Z,11.83
2023-06-18T00:56:45.410Z,12.20
2023-06-18T00:57:47.624Z,12.68
2023-06-18T00:58:49.416Z,12.93
2023-06-18T00:59:51.604Z,13.00
2023-06-18T01:00:53.479Z,12.93
2023-06-18T01:01:57.891Z,13.25
2023-06-18T01:03:05.207Z,12.70
2023-06-18T01:04:07.542Z,13.18
2023-06-18T01:05:09.801Z,12.70
2023-06-18T01:08:09.123Z,12.98
2023-06-18T01:09:11.292Z,12.93
2023-06-18T01:10:13.163Z,13.00
2023-06-18T01:11:15.333Z,13.70
2023-06-18T01:12:17.225Z,13.10
2023-06-18T01:13:19.226Z,14.23
2023-06-18T01:14:22.738Z,13.15
2023-06-18T01:15:24.774Z,14.15
2023-06-18T01:16:26.618Z,13.57
2023-06-18T01:17:31.222Z,13.20
2023-06-18T01:18:34.906Z,13.20
2023-06-18T01:19:55.227Z,12.63
2023-06-18T01:20:57.309Z,12.80
2023-06-18T01:22:07.368Z,12.65
2023-06-18T01:23:18.101Z,13.20
2023-06-18T01:24:23.801Z,13.80
2023-06-18T01:25:27.190Z,12.57
2023-06-18T01:26:30.315Z,13.02
2023-06-18T01:27:32.964Z,13.85
2023-06-18T01:28:35.071Z,13.47
2023-06-18T01:29:37.554Z,14.20
2023-06-18T01:30:39.359Z,13.52
2023-06-18T01:31:43.861Z,14.70
2023-06-18T01:32:45.663Z,14.05
2023-06-18T01:33:47.880Z,15.50
2023-06-18T01:34:49.791Z,15.00
2023-06-18T01:35:51.544Z,14.52
2023-06-18T01:37:16.238Z,14.10
2023-06-18T01:38:45.101Z,14.98
2023-06-18T01:40:05.724Z,13.50
2023-06-18T01:41:24.327Z,12.57
2023-06-18T01:42:28.745Z,15.35
2023-06-18T01:43:30.398Z,15.32
2023-06-18T01:44:32.417Z,14.82
2023-06-18T01:45:41.095Z,14.45
2023-06-18T01:46:43.427Z,14.63
2023-06-18T01:47:47.115Z,14.82
2023-06-18T01:49:00.896Z,15.57
2023-06-18T01:50:04.110Z,14.90
2023-06-18T01:51:06.932Z,16.23
2023-06-18T01:52:09.949Z,14.45
2023-06-18T01:53:17.282Z,15.43
2023-06-18T01:54:21.834Z,16.23
2023-06-18T01:55:25.141Z,14.90
2023-06-18T01:56:27.489Z,15.50
2023-06-18T01:57:29.728Z,15.50
2023-06-18T01:58:31.994Z,16.02
2023-06-18T01:59:33.744Z,15.32
2023-06-18T02:00:35.585Z,15.95
2023-06-18T02:01:37.538Z,16.67
2023-06-18T02:02:39.492Z,16.15
2023-06-18T02:03:42.316Z,16.08
2023-06-18T02:04:44.328Z,16.73
2023-06-18T02:05:47.112Z,17.02
2023-06-18T02:06:48.895Z,17.45
2023-06-18T02:07:50.660Z,17.95
2023-06-18T02:08:52.448Z,17.63
2023-06-18T02:09:54.221Z,17.35
2023-06-18T02:10:56.150Z,17.45
2023-06-18T02:11:58.052Z,18.80
2023-06-18T02:12:59.900Z,18.25
2023-06-18T02:14:01.688Z,18.23
2023-06-18T02:15:03.801Z,18.08
2023-06-18T02:16:05.552Z,17.05
2023-06-18T02:17:07.594Z,17.15
2023-06-18T02:18:09.583Z,17.25
2023-06-18T02:19:11.335Z,17.73
2023-06-18T02:20:13.104Z,17.02
2023-06-18T02:21:14.957Z,17.35
2023-06-18T02:22:16.796Z,17.13
2023-06-18T02:23:19.028Z,16.55
2023-06-18T02:24:21.122Z,17.48
2023-06-18T02:25:23.181Z,17.30
2023-06-18T02:26:25.220Z,16.60
2023-06-18T02:27:27.048Z,16.73
2023-06-18T02:28:28.898Z,17.58
2023-06-18T02:29:30.715Z,18.98
2023-06-18T02:30:32.514Z,17.75
2023-06-18T02:31:34.312Z,17.50
2023-06-18T02:32:36.071Z,18.60
2023-06-18T02:33:37.859Z,17.42
2023-06-18T02:34:39.772Z,17.63
2023-06-18T02:35:41.714Z,16.42
2023-06-18T02:36:43.546Z,15.68
2023-06-18T02:37:45.759Z,16.40
2023-06-18T02:38:47.639Z,17.65
2023-06-18T02:39:49.461Z,17.77
2023-06-18T02:40:51.272Z,17.75
2023-06-18T02:41:53.040Z,16.55
2023-06-18T02:42:55.012Z,16.57
2023-06-18T02:43:56.791Z,16.65
2023-06-18T02:44:58.839Z,15.32
2023-06-18T02:46:00.566Z,15.57
2023-06-18T02:47:02.348Z,15.75
2023-06-18T02:48:04.716Z,15.35
2023-06-18T02:49:06.656Z,14.90
2023-06-18T02:50:08.946Z,13.68
2023-06-18T02:51:11.675Z,14.60
2023-06-18T02:52:13.441Z,13.60
2023-06-18T02:53:15.476Z,14.13
2023-06-18T02:54:17.335Z,13.65
2023-06-18T02:55:19.211Z,14.00
2023-06-18T02:56:21.090Z,13.23
2023-06-18T02:57:22.893Z,12.30
2023-06-18T02:58:24.720Z,13.35
2023-06-18T02:59:26.504Z,13.82
2023-06-18T03:00:28.282Z,13.65
2023-06-18T03:01:30.139Z,12.85
2023-06-18T03:02:32.876Z,13.23
2023-06-18T03:03:34.693Z,12.47
2023-06-18T03:04:36.546Z,13.25
2023-06-18T03:05:38.422Z,13.25
2023-06-18T03:06:40.238Z,13.15
2023-06-18T03:07:42.160Z,13.18
2023-06-18T03:08:44.287Z,13.38
2023-06-18T03:09:46.157Z,13.77
2023-06-18T03:10:48.216Z,13.55
2023-06-18T03:11:49.958Z,13.55
2023-06-18T03:12:51.691Z,13.90
2023-06-18T03:13:53.479Z,13.57
2023-06-18T03:14:55.587Z,14.18
2023-06-18T03:15:57.536Z,13.93
2023-06-18T03:16:59.513Z,14.07
2023-06-18T03:18:01.676Z,15.07
2023-06-18T03:19:04.375Z,14.70
2023-06-18T03:20:06.692Z,14.52
2023-06-18T03:21:08.555Z,14.55
2023-06-18T03:22:10.356Z,14.70
2023-06-18T03:23:12.130Z,13.93
2023-06-18T03:24:13.954Z,14.23
2023-06-18T03:25:16.043Z,14.48
2023-06-18T03:26:17.892Z,14.57
2023-06-18T03:27:19.759Z,14.82
2023-06-18T03:28:21.616Z,14.10
2023-06-18T03:29:23.617Z,15.40
2023-06-18T03:30:25.516Z,15.23
2023-06-18T03:31:27.361Z,15.45
2023-06-18T03:32:29.127Z,15.23
2023-06-18T03:33:30.904Z,15.38
2023-06-18T03:34:32.782Z,16.73
2023-06-18T03:35:34.576Z,16.20
2023-06-18T03:36:36.425Z,15.88
2023-06-18T03:37:38.293Z,17.05
2023-06-18T03:38:40.157Z,16.42
2023-06-18T03:39:41.886Z,16.40
2023-06-18T03:40:43.731Z,18.02
2023-06-18T03:41:45.907Z,16.92
2023-06-18T03:42:47.899Z,16.48
2023-06-18T03:43:49.908Z,16.95
2023-06-18T03:44:51.857Z,16.23
2023-06-18T03:45:53.856Z,16.42
2023-06-18T03:46:55.653Z,16.10
2023-06-18T03:47:57.641Z,16.38
2023-06-18T03:48:59.861Z,16.02
2023-06-18T03:50:01.770Z,16.55
2023-06-18T03:51:03.878Z,17.73
2023-06-18T03:52:06.263Z,16.00
2023-06-18T03:53:09.450Z,17.63
2023-06-18T03:54:11.689Z,16.92
2023-06-18T03:55:13.612Z,16.70
2023-06-18T03:56:15.449Z,17.63
2023-06-18T03:57:17.311Z,17.40
2023-06-18T03:58:19.165Z,17.65
2023-06-18T03:59:21.195Z,17.70
2023-06-18T04:00:23.441Z,18.60
2023-06-18T04:01:27.055Z,17.83
2023-06-18T04:02:29.077Z,17.08
2023-06-18T04:03:31.145Z,18.13
2023-06-18T04:04:33.099Z,17.40
2023-06-18T04:05:34.902Z,17.70
2023-06-18T04:06:36.697Z,17.90
2023-06-18T04:07:38.390Z,17.98
2023-06-18T04:08:42.654Z,18.17
2023-06-18T04:09:44.476Z,18.95
2023-06-18T04:10:46.725Z,18.50
2023-06-18T04:11:49.341Z,18.30
2023-06-18T04:12:51.130Z,19.27
2023-06-18T04:13:52.869Z,17.08
2023-06-18T04:14:54.605Z,18.50
2023-06-18T04:15:58.357Z,18.53
2023-06-18T04:17:00.166Z,17.50
2023-06-18T04:18:02.070Z,18.67
2023-06-18T04:19:04.157Z,18.25
2023-06-18T04:20:06.763Z,18.73
2023-06-18T04:21:08.640Z,19.45
2023-06-18T04:22:10.438Z,18.65
2023-06-18T04:23:13.777Z,18.80
2023-06-18T04:24:15.597Z,18.88
2023-06-18T04:25:17.546Z,18.60
2023-06-18T04:26:19.335Z,19.57
2023-06-18T04:27:21.137Z,18.92
2023-06-18T04:28:23.154Z,18.90
2023-06-18T04:29:25.083Z,20.17
2023-06-18T04:30:27.314Z,19.05
2023-06-18T04:31:29.188Z,18.23
2023-06-18T04:32:30.987Z,19.23
2023-06-18T04:33:32.843Z,19.05
2023-06-18T04:34:34.639Z,19.15
2023-06-18T04:35:36.400Z,18.55
2023-06-18T04:36:38.103Z,20.13
2023-06-18T04:37:39.860Z,19.92
2023-06-18T04:38:41.689Z,19.40
2023-06-18T04:39:43.608Z,18.52
2023-06-18T04:40:45.622Z,18.58
2023-06-18T04:41:47.443Z,18.38
2023-06-18T04:42:49.413Z,19.85
2023-06-18T04:43:51.186Z,18.23
2023-06-18T04:44:52.907Z,19.23
2023-06-18T04:45:54.767Z,17.23
2023-06-18T04:46:56.588Z,18.27
2023-06-18T04:47:58.492Z,17.92
2023-06-18T04:49:00.311Z,16.92
2023-06-18T04:50:02.304Z,19.98
2023-06-18T04:51:04.310Z,18.65
2023-06-18T04:52:06.766Z,18.10
2023-06-18T04:53:08.744Z,18.55
2023-06-18T04:54:10.620Z,18.20
2023-06-18T04:55:12.407Z,20.15
2023-06-18T04:56:14.171Z,18.80
2023-06-18T04:57:16.009Z,18.47
2023-06-18T04:58:17.906Z,19.00
2023-06-18T04:59:20.614Z,17.73
2023-06-18T05:00:24.241Z,19.65
2023-06-18T05:01:26.325Z,18.90
2023-06-18T05:02:28.251Z,18.33
2023-06-18T05:03:30.319Z,17.92
2023-06-18T05:04:33.303Z,18.48
2023-06-18T05:05:37.069Z,17.30
2023-06-18T05:06:38.872Z,17.63
2023-06-18T05:07:40.640Z,16.30
2023-06-18T05:08:42.446Z,18.13
2023-06-18T05:09:44.321Z,17.13
2023-06-18T05:10:46.222Z,16.80
2023-06-18T05:11:48.162Z,17.95
2023-06-18T05:12:49.934Z,17.27
2023-06-18T05:13:51.870Z,17.17
2023-06-18T05:14:55.093Z,17.60
2023-06-18T05:15:57.173Z,17.20
2023-06-18T05:16:58.954Z,15.90
2023-06-18T05:18:01.070Z,17.30
2023-06-18T05:19:03.426Z,17.38
2023-06-18T05:20:06.179Z,17.05
2023-06-18T05:21:08.037Z,17.50
2023-06-18T05:22:09.894Z,16.65
2023-06-18T05:23:11.683Z,16.83
2023-06-18T05:24:13.598Z,17.13
2023-06-18T05:25:15.491Z,17.08
2023-06-18T05:26:17.312Z,16.30
2023-06-18T05:27:19.269Z,17.02
2023-06-18T05:28:21.064Z,15.80
2023-06-18T05:29:22.884Z,16.27
2023-06-18T05:30:24.779Z,17.88
2023-06-18T05:31:26.858Z,17.52
2023-06-18T05:32:28.756Z,17.00
2023-06-18T05:33:30.675Z,17.30
2023-06-18T05:34:32.610Z,16.02
2023-06-18T05:35:34.691Z,16.60
2023-06-18T05:36:36.610Z,17.88
2023-06-18T05:37:38.453Z,16.58
2023-06-18T05:38:40.437Z,16.47
2023-06-18T05:39:42.463Z,16.52
2023-06-18T05:40:44.297Z,16.42
2023-06-18T05:41:46.416Z,15.23
2023-06-18T05:42:48.706Z,15.90
2023-06-18T05:43:50.560Z,16.23
2023-06-18T05:44:52.899Z,15.38
2023-06-18T05:45:55.082Z,16.52
2023-06-18T05:46:57.304Z,15.48
2023-06-18T05:47:59.180Z,16.65
2023-06-18T05:49:01.254Z,16.40
2023-06-18T05:50:03.638Z,16.08
2023-06-18T05:51:05.521Z,16.00
2023-06-18T05:52:07.615Z,15.27
2023-06-18T05:53:09.685Z,17.33
2023-06-18T05:54:11.590Z,16.13
2023-06-18T05:55:13.656Z,16.52
2023-06-18T05:56:15.542Z,14.85
2023-06-18T05:57:17.342Z,15.85
2023-06-18T05:58:19.259Z,14.60
2023-06-18T05:59:21.144Z,16.17
2023-06-18T06:00:23.289Z,16.48
2023-06-18T06:01:25.500Z,15.05
2023-06-18T06:02:27.553Z,16.15
2023-06-18T06:03:29.556Z,15.73
2023-06-18T06:04:31.432Z,16.00
2023-06-18T06:05:33.374Z,15.85
2023-06-18T06:06:35.545Z,14.75
2023-06-18T06:07:37.380Z,16.65
2023-06-18T06:08:39.166Z,14.88
2023-06-18T06:09:41.082Z,14.87
2023-06-18T06:10:43.017Z,15.30
2023-06-18T06:11:45.001Z,15.27
2023-06-18T06:12:46.883Z,15.32
2023-06-18T06:13:48.819Z,16.60
2023-06-18T06:14:50.616Z,15.60
2023-06-18T06:15:52.624Z,14.98
2023-06-18T06:16:54.694Z,14.60
2023-06-18T06:17:56.692Z,13.70
2023-06-18T06:18:58.760Z,14.50
2023-06-18T06:20:00.748Z,17.67
2023-06-18T06:21:02.571Z,14.05
2023-06-18T06:22:04.685Z,15.48
2023-06-18T06:23:06.475Z,15.38
2023-06-18T06:24:08.405Z,14.65
2023-06-18T06:25:10.440Z,14.98
2023-06-18T06:26:13.186Z,14.25
2023-06-18T06:27:15.331Z,14.98
2023-06-18T06:28:17.237Z,15.55
2023-06-18T06:29:19.032Z,14.43
2023-06-18T06:30:21.255Z,14.07
2023-06-18T06:31:23.417Z,14.70
2023-06-18T06:32:25.247Z,14.32
2023-06-18T06:33:27.059Z,14.85
2023-06-18T06:34:29.178Z,15.23
2023-06-18T06:35:31.018Z,14.30
2023-06-18T06:36:33.295Z,14.27
2023-06-18T06:37:35.453Z,14.45
2023-06-18T06:38:37.636Z,13.25
2023-06-18T06:39:39.731Z,13.73
2023-06-18T06:40:41.831Z,14.13
2023-06-18T06:41:43.879Z,13.52
2023-06-18T06:42:45.786Z,13.27
2023-06-18T06:43:47.642Z,14.75
2023-06-18T06:44:49.410Z,13.90
2023-06-18T06:45:51.575Z,13.35
2023-06-18T06:46:53.601Z,13.00
2023-06-18T06:47:55.962Z,14.10
2023-06-18T06:48:58.015Z,13.05
2023-06-18T06:49:59.986Z,12.82
2023-06-18T06:51:02.760Z,13.57
2023-06-18T06:52:04.928Z,12.85
2023-06-18T06:53:06.776Z,12.55
2023-06-18T06:54:08.668Z,12.60
2023-06-18T06:55:10.468Z,13.93
2023-06-18T06:56:12.341Z,12.95
2023-06-18T06:57:14.421Z,12.43
2023-06-18T06:58:16.352Z,12.55
2023-06-18T06:59:18.542Z,12.30
2023-06-18T07:00:21.404Z,13.45
2023-06-18T07:01:23.743Z,12.23
2023-06-18T07:02:26.242Z,12.05
2023-06-18T07:03:28.407Z,13.50
2023-06-18T07:04:32.753Z,12.82
2023-06-18T07:05:35.377Z,12.93
2023-06-18T07:06:37.790Z,11.98
2023-06-18T07:07:39.577Z,13.55
2023-06-18T07:08:41.722Z,20.02
2023-06-18T07:09:44.883Z,13.18
2023-06-18T07:10:46.930Z,12.35
2023-06-18T07:11:48.716Z,12.30
2023-06-18T07:12:50.736Z,13.68
2023-06-18T07:13:52.578Z,11.98
2023-06-18T07:14:54.743Z,12.48
2023-06-18T07:15:56.728Z,12.02
2023-06-18T07:16:59.458Z,12.00
2023-06-18T07:18:01.349Z,12.20
2023-06-18T07:19:03.226Z,11.93
2023-06-18T07:20:05.670Z,12.70
2023-06-18T07:21:07.521Z,12.70
2023-06-18T07:22:09.281Z,12.70
2023-06-18T07:23:11.084Z,13.38
2023-06-18T07:24:13.312Z,12.90
2023-06-18T07:25:15.310Z,12.40
2023-06-18T07:26:17.296Z,13.32
2023-06-18T07:27:19.188Z,12.73
2023-06-18T07:28:21.260Z,13.70
2023-06-18T07:29:23.135Z,13.13
2023-06-18T07:30:25.267Z,12.32
2023-06-18T07:31:27.178Z,11.43
2023-06-18T07:32:29.073Z,12.10
2023-06-18T07:33:30.964Z,12.07
2023-06-18T07:34:32.777Z,12.75
2023-06-18T07:35:34.868Z,12.57
2023-06-18T07:36:36.823Z,12.85
2023-06-18T07:37:38.684Z,12.48
2023-06-18T07:38:40.424Z,12.60
2023-06-18T07:39:42.289Z,12.77
2023-06-18T07:40:44.317Z,12.05
2023-06-18T07:41:46.253Z,12.05
2023-06-18T07:42:48.402Z,12.43
2023-06-18T07:43:50.252Z,11.98
2023-06-18T07:44:51.996Z,13.68
2023-06-18T07:45:53.781Z,14.13
2023-06-18T07:46:55.855Z,12.10
2023-06-18T07:47:57.900Z,11.93
2023-06-18T07:48:59.796Z,12.63
2023-06-18T07:50:01.902Z,12.10
2023-06-18T07:51:04.094Z,12.38
2023-06-18T07:52:06.637Z,12.15
2023-06-18T07:53:08.442Z,12.93
2023-06-18T07:54:10.233Z,11.63
2023-06-18T07:55:12.089Z,11.80
2023-06-18T07:56:13.930Z,12.65
2023-06-18T07:57:15.896Z,11.38
2023-06-18T07:58:17.853Z,11.43
2023-06-18T07:59:19.878Z,11.43
2023-06-18T08:00:21.951Z,13.20
2023-06-18T08:01:24.023Z,12.20
2023-06-18T08:02:26.039Z,12.18
2023-06-18T08:03:27.933Z,11.83
2023-06-18T08:04:29.878Z,12.25
2023-06-18T08:05:31.813Z,12.93
2023-06-18T08:06:33.602Z,12.43
2023-06-18T08:07:36.005Z,12.00
2023-06-18T08:08:37.958Z,10.68
2023-06-18T08:09:39.915Z,10.70
2023-06-18T08:10:41.788Z,11.65
2023-06-18T08:11:44.118Z,16.05
2023-06-18T08:12:46.007Z,11.30
2023-06-18T08:13:48.014Z,11.20
2023-06-18T08:14:49.921Z,10.88
2023-06-18T08:15:51.867Z,11.13
2023-06-18T08:16:53.645Z,11.07
2023-06-18T08:17:55.610Z,10.93
2023-06-18T08:18:57.652Z,10.27
2023-06-18T08:19:59.565Z,10.40
2023-06-18T08:21:01.784Z,11.27
2023-06-18T08:22:03.751Z,11.35
2023-06-18T08:23:05.742Z,10.55
2023-06-18T08:24:07.800Z,10.67
2023-06-18T08:25:09.617Z,10.38
2023-06-18T08:26:11.381Z,10.52
2023-06-18T08:27:13.167Z,10.27
2023-06-18T08:28:15.148Z,10.20
2023-06-18T08:29:16.965Z,10.25
2023-06-18T08:30:18.885Z,11.32
2023-06-18T08:31:20.769Z,9.82
2023-06-18T08:32:23.425Z,10.95
2023-06-18T08:33:26.400Z,10.80
2023-06-18T08:34:28.470Z,11.33
2023-06-18T08:35:30.302Z,15.02
2023-06-18T08:36:32.128Z,11.65
2023-06-18T08:37:33.960Z,10.48
2023-06-18T08:38:35.899Z,12.30
2023-06-18T08:39:38.527Z,10.30
2023-06-18T08:40:54.530Z,9.73
2023-06-18T08:41:58.319Z,9.93
2023-06-18T08:43:07.137Z,9.82
2023-06-18T08:44:09.850Z,10.05
2023-06-18T08:45:11.736Z,10.13
2023-06-18T08:46:15.620Z,9.32
2023-06-18T08:47:18.616Z,9.55
2023-06-18T08:48:31.764Z,10.38
2023-06-18T08:49:34.960Z,9.85
2023-06-18T08:50:39.894Z,9.38
2023-06-18T08:51:45.144Z,9.88
2023-06-18T08:52:52.748Z,9.70
2023-06-18T08:54:10.728Z,9.50
2023-06-18T08:55:13.486Z,10.30
2023-06-18T08:56:17.336Z,9.60
2023-06-18T08:57:41.470Z,10.20
2023-06-18T08:58:49.417Z,9.48
2023-06-18T08:59:52.431Z,9.38
2023-06-18T09:00:54.813Z,9.77
2023-06-18T09:01:57.038Z,9.30
2023-06-18T09:02:59.777Z,11.68
2023-06-18T09:04:02.535Z,9.10
2023-06-18T09:05:05.664Z,10.73
2023-06-18T09:06:08.990Z,9.50
2023-06-18T09:07:11.021Z,9.30
2023-06-18T09:08:14.883Z,9.27
2023-06-18T09:09:17.087Z,9.27
2023-06-18T09:10:19.175Z,9.57
2023-06-18T09:11:22.458Z,9.57
2023-06-18T09:12:26.186Z,9.10
2023-06-18T09:13:28.071Z,9.85
2023-06-18T09:14:29.874Z,8.80
2023-06-18T09:15:31.479Z,9.73
2023-06-18T09:16:33.471Z,9.77
2023-06-18T09:17:35.514Z,9.13
2023-06-18T09:18:37.656Z,9.68
2023-06-18T09:19:40.161Z,8.85
2023-06-18T09:20:42.316Z,9.43
2023-06-18T09:21:44.714Z,9.15
2023-06-18T09:22:49.078Z,8.57
2023-06-18T09:23:57.169Z,8.85
2023-06-18T09:24:59.936Z,9.02
2023-06-18T09:26:03.171Z,10.15
2023-06-18T09:27:06.609Z,8.02
2023-06-18T09:28:09.144Z,8.83
2023-06-18T09:29:12.761Z,8.60
2023-06-18T09:30:22.463Z,8.50
2023-06-18T09:31:27.795Z,8.93
2023-06-18T09:32:29.685Z,9.35
2023-06-18T09:33:36.297Z,9.55
2023-06-18T09:34:39.305Z,8.70
2023-06-18T09:35:44.215Z,8.75
2023-06-18T09:36:48.456Z,8.25
2023-06-18T09:37:50.632Z,8.10
2023-06-18T09:38:54.697Z,9.10
2023-06-18T09:40:14.987Z,8.80
2023-06-18T09:41:19.264Z,9.02
2023-06-18T09:42:29.761Z,9.88
2023-06-18T09:43:35.007Z,8.68
2023-06-18T09:44:37.088Z,8.88
2023-06-18T09:45:39.128Z,8.68
2023-06-18T09:46:50.790Z,8.30
2023-06-18T09:47:54.116Z,8.25
2023-06-18T09:48:55.997Z,7.70
2023-06-18T09:49:58.044Z,8.53
2023-06-18T09:51:00.176Z,8.30
2023-06-18T09:52:02.195Z,8.15
2023-06-18T09:53:04.101Z,8.95
2023-06-18T09:54:06.019Z,7.95
2023-06-18T09:55:32.943Z,7.70
2023-06-18T09:56:35.375Z,7.93
2023-06-18T09:57:50.179Z,8.40
2023-06-18T09:58:52.788Z,7.97
2023-06-18T10:00:13.273Z,8.25
2023-06-18T10:01:16.748Z,8.33
2023-06-18T10:02:26.792Z,7.38
2023-06-18T10:03:28.820Z,8.15
2023-06-18T10:04:30.624Z,7.85
2023-06-18T10:05:32.521Z,7.85
2023-06-18T10:06:36.601Z,8.10
2023-06-18T10:07:42.472Z,7.30
2023-06-18T10:08:49.670Z,8.10
2023-06-18T10:09:52.067Z,7.93
2023-06-18T10:10:53.877Z,7.68
2023-06-18T10:11:58.044Z,7.73
2023-06-18T10:13:04.382Z,7.30
2023-06-18T10:14:11.880Z,8.13
2023-06-18T10:15:14.765Z,8.00
2023-06-18T10:16:21.225Z,7.25
2023-06-18T10:17:27.457Z,7.38
2023-06-18T10:18:30.085Z,7.60
2023-06-18T10:19:38.015Z,7.22
2023-06-18T10:20:42.026Z,6.97
2023-06-18T10:21:59.233Z,6.88
2023-06-18T10:23:04.650Z,6.93
2023-06-18T10:24:22.676Z,6.78
2023-06-18T10:25:26.049Z,6.97
2023-06-18T10:26:29.478Z,6.82
2023-06-18T10:27:31.804Z,6.13
2023-06-18T10:28:34.282Z,6.78
2023-06-18T10:29:36.424Z,6.90
2023-06-18T10:30:39.759Z,6.35
2023-06-18T10:31:42.735Z,7.18
2023-06-18T10:32:45.310Z,7.22
2023-06-18T10:33:48.407Z,7.10
2023-06-18T10:34:51.644Z,6.60
2023-06-18T10:35:54.425Z,7.18
2023-06-18T10:36:57.600Z,6.93
2023-06-18T10:38:00.794Z,6.13
2023-06-18T10:39:03.230Z,7.53
2023-06-18T10:40:06.723Z,7.72
2023-06-18T10:41:12.793Z,6.68
2023-06-18T10:42:16.964Z,6.68
2023-06-18T10:43:25.448Z,6.72
2023-06-18T10:44:34.901Z,7.10
2023-06-18T10:45:37.037Z,6.90
2023-06-18T10:46:38.927Z,6.78
2023-06-18T10:47:42.003Z,7.15
2023-06-18T10:49:19.710Z,6.97
2023-06-18T10:50:23.878Z,6.88
2023-06-18T10:51:27.133Z,6.65
2023-06-18T10:52:30.847Z,7.28
2023-06-18T10:53:33.064Z,8.18
2023-06-18T10:54:34.815Z,7.88
2023-06-18T10:55:37.010Z,7.33
2023-06-18T10:56:38.792Z,7.60
2023-06-18T10:57:43.360Z,7.50
2023-06-18T10:58:45.292Z,7.90
2023-06-18T10:59:47.942Z,7.10
2023-06-18T11:00:54.993Z,7.95
2023-06-18T11:02:00.422Z,8.23
2023-06-18T11:03:18.082Z,6.95
2023-06-18T11:04:20.767Z,7.50
2023-06-18T11:05:34.554Z,8.25
2023-06-18T11:06:36.365Z,7.10
2023-06-18T11:07:41.294Z,6.72
2023-06-18T11:08:43.239Z,7.53
2023-06-18T11:09:58.404Z,7.60
2023-06-18T11:11:11.422Z,8.20
2023-06-18T11:12:24.129Z,6.78
2023-06-18T11:13:34.051Z,6.70
2023-06-18T11:14:37.614Z,7.40
2023-06-18T11:16:07.670Z,7.75
2023-06-18T11:17:11.063Z,6.72
2023-06-18T11:18:19.737Z,7.20
2023-06-18T11:19:21.986Z,7.15
2023-06-18T11:20:24.553Z,7.60
2023-06-18T11:21:26.822Z,6.97
2023-06-18T11:22:30.125Z,6.88
2023-06-18T11:23:33.132Z,7.43
2023-06-18T11:24:35.577Z,7.45
2023-06-18T11:25:37.482Z,6.63
2023-06-18T11:26:39.447Z,7.43
2023-06-18T11:27:46.940Z,6.63
2023-06-18T11:28:50.407Z,7.33
2023-06-18T11:30:01.771Z,7.88
2023-06-18T11:31:05.283Z,7.63
2023-06-18T11:32:14.125Z,7.55
2023-06-18T11:33:27.772Z,7.03
2023-06-18T11:34:30.083Z,7.30
2023-06-18T11:35:32.578Z,7.57
2023-06-18T11:36:34.629Z,7.20
2023-06-18T11:37:40.758Z,7.88
2023-06-18T11:38:42.844Z,7.65
2023-06-18T11:39:44.992Z,7.20
2023-06-18T11:40:50.597Z,6.70
2023-06-18T11:41:52.439Z,7.10
2023-06-18T11:42:54.769Z,6.97
2023-06-18T11:43:56.764Z,6.85
2023-06-18T11:45:08.342Z,6.85
2023-06-18T11:46:25.902Z,7.70
2023-06-18T11:47:27.736Z,7.13
2023-06-18T11:48:34.573Z,7.00
2023-06-18T11:49:36.327Z,7.57
2023-06-18T11:50:38.260Z,7.50
2023-06-18T11:51:40.652Z,7.05
2023-06-18T11:52:42.995Z,7.00
2023-06-18T11:53:46.967Z,6.00
2023-06-18T11:54:50.336Z,6.38
2023-06-18T11:55:54.901Z,6.60
2023-06-18T11:56:58.715Z,7.22
2023-06-18T11:58:02.955Z,6.90
2023-06-18T11:59:05.770Z,7.20
2023-06-18T12:00:08.659Z,6.28
2023-06-18T12:01:11.340Z,6.43
2023-06-18T12:02:15.405Z,6.57
2023-06-18T12:03:17.523Z,6.45
2023-06-18T12:04:19.505Z,6.38
2023-06-18T12:05:21.517Z,5.93
2023-06-18T12:06:27.725Z,6.18
2023-06-18T12:07:30.041Z,5.55
2023-06-18T12:08:32.479Z,5.25
2023-06-18T12:09:35.564Z,5.35
2023-06-18T12:10:39.062Z,4.80
2023-06-18T12:11:52.685Z,5.40
2023-06-18T12:13:07.208Z,4.90
2023-06-18T12:14:16.178Z,4.88
2023-06-18T12:15:31.885Z,5.47
2023-06-18T12:16:36.535Z,5.63
2023-06-18T12:17:54.626Z,5.82
2023-06-18T12:18:59.532Z,5.90
2023-06-18T12:20:08.970Z,5.63
2023-06-18T12:21:10.973Z,5.35
2023-06-18T12:22:12.910Z,5.70
2023-06-18T12:23:15.056Z,5.80
2023-06-18T12:24:17.061Z,5.70
2023-06-18T12:25:22.170Z,6.00
2023-06-18T12:26:24.811Z,6.15
2023-06-18T12:27:27.078Z,6.00
2023-06-18T12:28:29.127Z,6.13
2023-06-18T12:29:31.148Z,6.00
2023-06-18T12:30:37.193Z,6.15
2023-06-18T12:31:39.086Z,6.28
2023-06-18T12:32:41.281Z,5.90
2023-06-18T12:33:43.134Z,6.17
2023-06-18T12:34:45.096Z,5.78
2023-06-18T12:35:51.564Z,5.93
2023-06-18T12:36:57.104Z,6.35
2023-06-18T12:38:09.110Z,6.05
2023-06-18T12:39:11.481Z,5.80
2023-06-18T12:40:20.274Z,5.97
2023-06-18T12:41:23.792Z,5.63
2023-06-18T12:42:25.850Z,6.07
2023-06-18T12:43:27.936Z,5.80
2023-06-18T12:44:29.958Z,6.43
2023-06-18T12:45:33.083Z,6.25
2023-06-18T12:46:35.852Z,6.43
2023-06-18T12:47:46.489Z,6.03
2023-06-18T12:48:52.296Z,6.25
2023-06-18T12:49:54.526Z,6.90
2023-06-18T12:50:56.731Z,6.10
2023-06-18T12:51:58.695Z,6.22
2023-06-18T12:53:00.523Z,6.25
2023-06-18T12:54:02.291Z,6.38
2023-06-18T12:55:04.212Z,7.07
2023-06-18T12:56:22.866Z,6.55
2023-06-18T12:57:29.241Z,7.00
2023-06-18T12:58:32.162Z,6.53
2023-06-18T12:59:33.940Z,6.70
2023-06-18T13:00:35.788Z,6.53
2023-06-18T13:01:37.617Z,6.80
2023-06-18T13:02:39.455Z,6.97
2023-06-18T13:03:41.789Z,6.95
2023-06-18T13:04:44.023Z,6.47
2023-06-18T13:05:47.803Z,6.70
2023-06-18T13:06:50.002Z,6.78
2023-06-18T13:07:54.296Z,6.95
2023-06-18T13:08:56.119Z,6.97
2023-06-18T13:09:57.946Z,6.15
2023-06-18T13:10:59.896Z,6.35
2023-06-18T13:12:01.696Z,6.68
2023-06-18T13:13:03.517Z,7.10
2023-06-18T13:14:09.342Z,6.82
2023-06-18T13:15:15.897Z,6.68
2023-06-18T13:16:18.046Z,7.10
2023-06-18T13:17:19.950Z,6.45
2023-06-18T13:18:22.354Z,6.65
2023-06-18T13:19:24.152Z,6.43
2023-06-18T13:20:26.072Z,5.90
2023-06-18T13:21:28.112Z,6.80
2023-06-18T13:22:30.009Z,6.18
2023-06-18T13:23:31.827Z,6.43
2023-06-18T13:24:33.765Z,6.25
2023-06-18T13:25:35.727Z,6.35
2023-06-18T13:26:37.756Z,5.47
2023-06-18T13:27:39.535Z,5.93
2023-06-18T13:28:41.411Z,6.22
2023-06-18T13:29:43.238Z,5.88
2023-06-18T13:30:45.349Z,5.70
2023-06-18T13:31:47.122Z,5.55
2023-06-18T13:32:49.023Z,5.63
2023-06-18T13:33:50.951Z,6.50
2023-06-18T13:34:53.512Z,6.20
2023-06-18T13:35:55.463Z,5.13
2023-06-18T13:36:57.259Z,5.87
2023-06-18T13:37:59.263Z,5.75
2023-06-18T13:39:01.123Z,7.05
2023-06-18T13:40:03.013Z,5.47
2023-06-18T13:41:04.761Z,5.22
2023-06-18T13:42:06.769Z,4.88
2023-06-18T13:43:08.711Z,5.20
2023-06-18T13:44:10.590Z,5.65
2023-06-18T13:45:12.619Z,5.40
2023-06-18T13:46:14.639Z,5.68